sensor_id;sensor_type;location;lat;lon;timestamp;pressure;altitude;pressure_sealevel;temperature;humidity
64616;BME280;51027;42.162;24.754;2023-02-04T00:00:45;99675.59;;;4.61;50.73
64616;BME280;51027;42.162;24.754;2023-02-04T00:03:12;99694.44;;;4.79;50.48
64616;BME280;51027;42.162;24.754;2023-02-04T00:05:38;99693.53;;;4.80;50.60
64616;BME280;51027;42.162;24.754;2023-02-04T00:08:03;99684.66;;;4.34;51.11
64616;BME280;51027;42.162;24.754;2023-02-04T00:10:28;99680.84;;;4.58;51.50
64616;BME280;51027;42.162;24.754;2023-02-04T00:12:54;99677.13;;;4.73;51.27
64616;BME280;51027;42.162;24.754;2023-02-04T00:15:19;99677.72;;;4.35;51.10
64616;BME280;51027;42.162;24.754;2023-02-04T00:17:45;99671.16;;;4.05;52.02
64616;BME280;51027;42.162;24.754;2023-02-04T00:20:10;99642.88;;;3.76;52.57
64616;BME280;51027;42.162;24.754;2023-02-04T00:22:36;99652.03;;;4.09;52.45
64616;BME280;51027;42.162;24.754;2023-02-04T00:25:01;99662.97;;;4.32;51.65
64616;BME280;51027;42.162;24.754;2023-02-04T00:27:27;99666.34;;;4.41;51.87
64616;BME280;51027;42.162;24.754;2023-02-04T00:29:52;99523.16;;;3.71;51.62
64616;BME280;51027;42.162;24.754;2023-02-04T00:32:18;99662.03;;;4.37;51.80
64616;BME280;51027;42.162;24.754;2023-02-04T00:34:43;99650.53;;;4.51;51.89
64616;BME280;51027;42.162;24.754;2023-02-04T00:37:08;99657.19;;;4.69;51.78
64616;BME280;51027;42.162;24.754;2023-02-04T00:39:35;99656.22;;;4.76;51.33
64616;BME280;51027;42.162;24.754;2023-02-04T00:42:00;99653.94;;;4.55;51.35
64616;BME280;51027;42.162;24.754;2023-02-04T00:44:25;99651.72;;;4.30;51.09
64616;BME280;51027;42.162;24.754;2023-02-04T00:46:51;99658.88;;;4.73;50.67
64616;BME280;51027;42.162;24.754;2023-02-04T00:49:16;99658.59;;;4.90;50.08
64616;BME280;51027;42.162;24.754;2023-02-04T00:51:41;99652.91;;;4.65;49.84
64616;BME280;51027;42.162;24.754;2023-02-04T00:54:11;99641.38;;;4.78;49.19
64616;BME280;51027;42.162;24.754;2023-02-04T00:56:36;99646.56;;;4.80;49.47
64616;BME280;51027;42.162;24.754;2023-02-04T00:59:02;99643.81;;;4.90;49.45
64616;BME280;51027;42.162;24.754;2023-02-04T01:01:27;99638.69;;;4.84;49.15
64616;BME280;51027;42.162;24.754;2023-02-04T01:03:53;99634.53;;;4.73;49.16
64616;BME280;51027;42.162;24.754;2023-02-04T01:06:19;99627.91;;;4.53;49.60
64616;BME280;51027;42.162;24.754;2023-02-04T01:08:44;99620.81;;;4.61;49.91
64616;BME280;51027;42.162;24.754;2023-02-04T01:11:09;99619.63;;;4.79;49.59
64616;BME280;51027;42.162;24.754;2023-02-04T01:13:35;99607.19;;;4.95;48.85
64616;BME280;51027;42.162;24.754;2023-02-04T01:16:00;99599.75;;;5.20;48.63
64616;BME280;51027;42.162;24.754;2023-02-04T01:18:25;99589.31;;;5.22;48.70
64616;BME280;51027;42.162;24.754;2023-02-04T01:20:51;99581.19;;;4.89;48.56
64616;BME280;51027;42.162;24.754;2023-02-04T01:23:16;99579.06;;;5.11;49.11
64616;BME280;51027;42.162;24.754;2023-02-04T01:25:42;99577.03;;;5.25;48.69
64616;BME280;51027;42.162;24.754;2023-02-04T01:28:07;99566.34;;;5.37;48.74
64616;BME280;51027;42.162;24.754;2023-02-04T01:30:32;99561.31;;;5.28;48.88
64616;BME280;51027;42.162;24.754;2023-02-04T01:32:58;99543.59;;;5.44;49.25
64616;BME280;51027;42.162;24.754;2023-02-04T01:35:23;99541.88;;;5.43;49.26
64616;BME280;51027;42.162;24.754;2023-02-04T01:37:49;99524.50;;;5.40;49.32
64616;BME280;51027;42.162;24.754;2023-02-04T01:40:15;99521.13;;;5.35;49.77
64616;BME280;51027;42.162;24.754;2023-02-04T01:42:40;99516.81;;;5.34;50.35
64616;BME280;51027;42.162;24.754;2023-02-04T01:45:06;99522.78;;;5.39;50.14
64616;BME280;51027;42.162;24.754;2023-02-04T01:47:32;99520.34;;;5.32;50.49
64616;BME280;51027;42.162;24.754;2023-02-04T01:49:58;99518.59;;;5.31;51.04
64616;BME280;51027;42.162;24.754;2023-02-04T01:52:24;99510.94;;;5.23;50.95
64616;BME280;51027;42.162;24.754;2023-02-04T01:54:50;99514.41;;;5.24;51.16
64616;BME280;51027;42.162;24.754;2023-02-04T01:57:16;99509.16;;;5.25;51.15
64616;BME280;51027;42.162;24.754;2023-02-04T01:59:44;99506.50;;;5.27;51.38
64616;BME280;51027;42.162;24.754;2023-02-04T02:02:36;99502.19;;;5.26;51.30
64616;BME280;51027;42.162;24.754;2023-02-04T02:05:02;99497.19;;;5.15;51.15
64616;BME280;51027;42.162;24.754;2023-02-04T02:07:27;99497.16;;;5.16;51.20
64616;BME280;51027;42.162;24.754;2023-02-04T02:09:52;99491.63;;;5.32;51.17
64616;BME280;51027;42.162;24.754;2023-02-04T02:12:18;99492.50;;;5.31;51.48
64616;BME280;51027;42.162;24.754;2023-02-04T02:14:43;99491.84;;;5.21;51.07
64616;BME280;51027;42.162;24.754;2023-02-04T02:17:09;99471.44;;;4.97;51.39
64616;BME280;51027;42.162;24.754;2023-02-04T02:19:36;99486.63;;;5.21;51.47
64616;BME280;51027;42.162;24.754;2023-02-04T02:22:23;99481.19;;;5.32;51.85
64616;BME280;51027;42.162;24.754;2023-02-04T02:24:51;99475.81;;;5.38;51.30
64616;BME280;51027;42.162;24.754;2023-02-04T02:27:16;99475.06;;;5.33;51.51
64616;BME280;51027;42.162;24.754;2023-02-04T02:29:42;99476.13;;;5.24;51.28
64616;BME280;51027;42.162;24.754;2023-02-04T02:32:09;99470.75;;;5.32;51.50
64616;BME280;51027;42.162;24.754;2023-02-04T02:34:36;99440.78;;;5.08;51.88
64616;BME280;51027;42.162;24.754;2023-02-04T02:37:02;99443.94;;;5.24;51.16
64616;BME280;51027;42.162;24.754;2023-02-04T02:39:28;99469.88;;;5.30;50.88
64616;BME280;51027;42.162;24.754;2023-02-04T02:41:55;99460.09;;;5.39;50.79
64616;BME280;51027;42.162;24.754;2023-02-04T02:44:24;99438.03;;;5.14;51.00
64616;BME280;51027;42.162;24.754;2023-02-04T02:46:53;99411.91;;;5.15;51.25
64616;BME280;51027;42.162;24.754;2023-02-04T02:49:19;99412.03;;;5.11;52.17
64616;BME280;51027;42.162;24.754;2023-02-04T02:51:45;99448.84;;;5.37;51.58
64616;BME280;51027;42.162;24.754;2023-02-04T02:54:23;99444.88;;;5.19;51.67
64616;BME280;51027;42.162;24.754;2023-02-04T02:56:50;99429.81;;;5.32;51.21
64616;BME280;51027;42.162;24.754;2023-02-04T02:59:17;99418.97;;;5.10;51.45
64616;BME280;51027;42.162;24.754;2023-02-04T03:01:44;99423.97;;;5.21;52.11
64616;BME280;51027;42.162;24.754;2023-02-04T03:04:12;99411.16;;;5.09;51.74
64616;BME280;51027;42.162;24.754;2023-02-04T03:06:38;99411.94;;;5.14;51.94
64616;BME280;51027;42.162;24.754;2023-02-04T03:09:03;99404.09;;;5.14;52.42
64616;BME280;51027;42.162;24.754;2023-02-04T03:11:29;99397.53;;;4.96;52.78
64616;BME280;51027;42.162;24.754;2023-02-04T03:13:58;99402.44;;;5.11;52.32
64616;BME280;51027;42.162;24.754;2023-02-04T03:16:26;99395.47;;;5.10;51.98
64616;BME280;51027;42.162;24.754;2023-02-04T03:18:51;99387.19;;;5.32;51.50
64616;BME280;51027;42.162;24.754;2023-02-04T03:21:17;99395.41;;;5.13;52.24
64616;BME280;51027;42.162;24.754;2023-02-04T03:23:42;99372.00;;;5.09;52.03
64616;BME280;51027;42.162;24.754;2023-02-04T03:26:08;99391.13;;;5.11;51.97
64616;BME280;51027;42.162;24.754;2023-02-04T03:28:38;99399.78;;;5.13;52.56
64616;BME280;51027;42.162;24.754;2023-02-04T03:31:04;99377.97;;;5.15;52.90
64616;BME280;51027;42.162;24.754;2023-02-04T03:33:29;99400.47;;;4.81;53.19
64616;BME280;51027;42.162;24.754;2023-02-04T03:35:56;99384.56;;;4.93;53.47
64616;BME280;51027;42.162;24.754;2023-02-04T03:38:22;99385.81;;;4.74;53.64
64616;BME280;51027;42.162;24.754;2023-02-04T03:40:47;99392.13;;;4.63;53.75
64616;BME280;51027;42.162;24.754;2023-02-04T03:43:13;99387.19;;;4.91;53.27
64616;BME280;51027;42.162;24.754;2023-02-04T03:45:38;99380.91;;;5.02;52.77
64616;BME280;51027;42.162;24.754;2023-02-04T03:48:04;99376.66;;;4.96;53.52
64616;BME280;51027;42.162;24.754;2023-02-04T03:50:29;99357.75;;;4.85;53.18
64616;BME280;51027;42.162;24.754;2023-02-04T03:52:55;99361.72;;;5.03;52.94
64616;BME280;51027;42.162;24.754;2023-02-04T03:55:20;99360.09;;;4.97;52.86
64616;BME280;51027;42.162;24.754;2023-02-04T03:57:45;99349.28;;;5.14;51.78
64616;BME280;51027;42.162;24.754;2023-02-04T04:00:12;99324.06;;;4.74;52.51
64616;BME280;51027;42.162;24.754;2023-02-04T04:02:38;99340.81;;;5.04;52.27
64616;BME280;51027;42.162;24.754;2023-02-04T04:05:04;99342.16;;;4.83;52.43
64616;BME280;51027;42.162;24.754;2023-02-04T04:07:30;99332.13;;;5.04;52.28
64616;BME280;51027;42.162;24.754;2023-02-04T04:09:55;99324.06;;;4.74;52.45
64616;BME280;51027;42.162;24.754;2023-02-04T04:12:20;99327.00;;;4.60;52.30
64616;BME280;51027;42.162;24.754;2023-02-04T04:14:46;99332.84;;;4.72;53.13
64616;BME280;51027;42.162;24.754;2023-02-04T04:17:11;99264.00;;;4.37;53.65
64616;BME280;51027;42.162;24.754;2023-02-04T04:19:37;99326.38;;;4.88;53.56
64616;BME280;51027;42.162;24.754;2023-02-04T04:22:02;99308.06;;;4.91;53.41
64616;BME280;51027;42.162;24.754;2023-02-04T04:24:27;99313.38;;;4.86;53.79
64616;BME280;51027;42.162;24.754;2023-02-04T04:26:53;99314.13;;;4.91;53.81
64616;BME280;51027;42.162;24.754;2023-02-04T04:29:18;99324.53;;;4.93;54.08
64616;BME280;51027;42.162;24.754;2023-02-04T04:31:43;99313.06;;;5.00;53.68
64616;BME280;51027;42.162;24.754;2023-02-04T04:34:09;99319.34;;;4.91;53.44
64616;BME280;51027;42.162;24.754;2023-02-04T04:36:35;99328.09;;;4.89;53.95
64616;BME280;51027;42.162;24.754;2023-02-04T04:39:00;99307.22;;;4.50;54.08
64616;BME280;51027;42.162;24.754;2023-02-04T04:41:26;99328.16;;;4.46;54.38
64616;BME280;51027;42.162;24.754;2023-02-04T04:43:51;99323.53;;;4.58;54.98
64616;BME280;51027;42.162;24.754;2023-02-04T04:46:16;99285.34;;;4.56;54.54
64616;BME280;51027;42.162;24.754;2023-02-04T04:48:42;99305.78;;;4.34;55.46
64616;BME280;51027;42.162;24.754;2023-02-04T04:51:07;99285.97;;;4.25;54.92
64616;BME280;51027;42.162;24.754;2023-02-04T04:53:33;99312.38;;;4.52;54.72
64616;BME280;51027;42.162;24.754;2023-02-04T04:55:58;99302.81;;;4.52;55.28
64616;BME280;51027;42.162;24.754;2023-02-04T04:58:23;99294.56;;;4.72;54.73
64616;BME280;51027;42.162;24.754;2023-02-04T05:00:49;99276.44;;;4.66;54.97
64616;BME280;51027;42.162;24.754;2023-02-04T05:03:14;99299.72;;;4.75;54.71
64616;BME280;51027;42.162;24.754;2023-02-04T05:05:40;99272.25;;;4.17;56.24
64616;BME280;51027;42.162;24.754;2023-02-04T05:08:08;99288.91;;;4.52;56.25
64616;BME280;51027;42.162;24.754;2023-02-04T05:10:40;99270.03;;;4.41;55.92
64616;BME280;51027;42.162;24.754;2023-02-04T05:13:05;99296.97;;;4.80;55.56
64616;BME280;51027;42.162;24.754;2023-02-04T05:15:31;99298.47;;;4.53;55.59
64616;BME280;51027;42.162;24.754;2023-02-04T05:17:56;99296.41;;;4.67;55.86
64616;BME280;51027;42.162;24.754;2023-02-04T05:20:23;99275.69;;;4.59;56.16
64616;BME280;51027;42.162;24.754;2023-02-04T05:22:48;99293.44;;;4.44;56.28
64616;BME280;51027;42.162;24.754;2023-02-04T05:25:14;99291.97;;;4.30;56.37
64616;BME280;51027;42.162;24.754;2023-02-04T05:27:41;99275.56;;;4.25;56.18
64616;BME280;51027;42.162;24.754;2023-02-04T05:30:09;99287.47;;;4.37;56.11
64616;BME280;51027;42.162;24.754;2023-02-04T05:32:35;99272.56;;;4.44;55.88
64616;BME280;51027;42.162;24.754;2023-02-04T05:35:01;99289.47;;;4.66;55.81
64616;BME280;51027;42.162;24.754;2023-02-04T05:37:26;99286.81;;;4.68;55.72
64616;BME280;51027;42.162;24.754;2023-02-04T05:39:52;99285.00;;;4.73;55.57
64616;BME280;51027;42.162;24.754;2023-02-04T05:42:17;99277.91;;;4.78;55.29
64616;BME280;51027;42.162;24.754;2023-02-04T05:44:43;99278.31;;;4.59;55.69
64616;BME280;51027;42.162;24.754;2023-02-04T05:47:08;99295.34;;;4.76;55.24
64616;BME280;51027;42.162;24.754;2023-02-04T05:49:34;99291.25;;;4.64;55.50
64616;BME280;51027;42.162;24.754;2023-02-04T05:51:59;99285.31;;;4.57;55.81
64616;BME280;51027;42.162;24.754;2023-02-04T05:54:24;99283.13;;;4.78;55.63
64616;BME280;51027;42.162;24.754;2023-02-04T05:56:50;99271.09;;;4.72;55.47
64616;BME280;51027;42.162;24.754;2023-02-04T05:59:16;99304.44;;;4.97;54.86
64616;BME280;51027;42.162;24.754;2023-02-04T06:01:42;99296.94;;;4.83;55.73
64616;BME280;51027;42.162;24.754;2023-02-04T06:04:07;99282.22;;;4.79;55.01
64616;BME280;51027;42.162;24.754;2023-02-04T06:06:33;99306.28;;;4.93;54.97
64616;BME280;51027;42.162;24.754;2023-02-04T06:08:58;99298.53;;;4.88;55.32
64616;BME280;51027;42.162;24.754;2023-02-04T06:11:24;99304.16;;;5.09;54.54
64616;BME280;51027;42.162;24.754;2023-02-04T06:13:49;99280.59;;;4.75;55.12
64616;BME280;51027;42.162;24.754;2023-02-04T06:16:14;99270.28;;;4.69;55.10
64616;BME280;51027;42.162;24.754;2023-02-04T06:18:40;99292.16;;;4.63;55.41
64616;BME280;51027;42.162;24.754;2023-02-04T06:21:05;99280.88;;;5.01;54.75
64616;BME280;51027;42.162;24.754;2023-02-04T06:23:31;99279.19;;;4.58;54.64
64616;BME280;51027;42.162;24.754;2023-02-04T06:25:59;99314.47;;;4.76;55.38
64616;BME280;51027;42.162;24.754;2023-02-04T06:28:24;99292.03;;;5.06;54.73
64616;BME280;51027;42.162;24.754;2023-02-04T06:30:50;99311.16;;;4.68;55.20
64616;BME280;51027;42.162;24.754;2023-02-04T06:33:15;99306.19;;;4.96;55.24
64616;BME280;51027;42.162;24.754;2023-02-04T06:35:40;99309.09;;;4.84;55.05
64616;BME280;51027;42.162;24.754;2023-02-04T06:38:06;99301.28;;;4.82;55.29
64616;BME280;51027;42.162;24.754;2023-02-04T06:40:31;99274.09;;;4.54;55.80
64616;BME280;51027;42.162;24.754;2023-02-04T06:42:57;99307.69;;;5.06;55.02
64616;BME280;51027;42.162;24.754;2023-02-04T06:45:22;99292.66;;;4.79;54.99
64616;BME280;51027;42.162;24.754;2023-02-04T06:47:47;99295.19;;;4.83;55.29
64616;BME280;51027;42.162;24.754;2023-02-04T06:50:13;99316.66;;;4.95;55.21
64616;BME280;51027;42.162;24.754;2023-02-04T06:52:46;99286.59;;;5.15;54.37
64616;BME280;51027;42.162;24.754;2023-02-04T06:55:13;99317.41;;;5.37;53.74
64616;BME280;51027;42.162;24.754;2023-02-04T06:57:39;99312.56;;;4.84;55.55
64616;BME280;51027;42.162;24.754;2023-02-04T07:00:09;99319.56;;;5.19;54.94
64616;BME280;51027;42.162;24.754;2023-02-04T07:02:35;99321.41;;;5.52;54.17
64616;BME280;51027;42.162;24.754;2023-02-04T07:05:02;99329.63;;;5.36;54.70
64616;BME280;51027;42.162;24.754;2023-02-04T07:07:27;99319.47;;;5.24;54.74
64616;BME280;51027;42.162;24.754;2023-02-04T07:09:53;99344.06;;;5.14;55.39
64616;BME280;51027;42.162;24.754;2023-02-04T07:12:18;99342.84;;;4.90;55.99
64616;BME280;51027;42.162;24.754;2023-02-04T07:14:44;99328.53;;;5.45;55.34
64616;BME280;51027;42.162;24.754;2023-02-04T07:17:09;99327.81;;;4.62;56.90
64616;BME280;51027;42.162;24.754;2023-02-04T07:19:35;99332.84;;;4.72;57.48
64616;BME280;51027;42.162;24.754;2023-02-04T07:22:02;99338.72;;;4.81;57.32
64616;BME280;51027;42.162;24.754;2023-02-04T07:24:27;99335.06;;;5.27;56.59
64616;BME280;51027;42.162;24.754;2023-02-04T07:26:53;99322.88;;;5.63;55.25
64616;BME280;51027;42.162;24.754;2023-02-04T07:29:18;99330.88;;;5.90;54.96
64616;BME280;51027;42.162;24.754;2023-02-04T07:31:44;99311.69;;;6.25;54.13
64616;BME280;51027;42.162;24.754;2023-02-04T07:34:13;99328.06;;;5.99;55.71
64616;BME280;51027;42.162;24.754;2023-02-04T07:36:39;99340.75;;;6.14;55.76
64616;BME280;51027;42.162;24.754;2023-02-04T07:39:05;99323.72;;;6.30;55.89
64616;BME280;51027;42.162;24.754;2023-02-04T07:41:31;99322.84;;;6.30;56.08
64616;BME280;51027;42.162;24.754;2023-02-04T07:43:56;99307.16;;;5.99;56.76
64616;BME280;51027;42.162;24.754;2023-02-04T07:46:21;99326.03;;;6.10;57.19
64616;BME280;51027;42.162;24.754;2023-02-04T07:48:47;99305.94;;;7.82;52.76
64616;BME280;51027;42.162;24.754;2023-02-04T07:51:13;99305.91;;;7.57;53.78
64616;BME280;51027;42.162;24.754;2023-02-04T07:53:38;99310.19;;;6.77;55.88
64616;BME280;51027;42.162;24.754;2023-02-04T07:56:03;99274.63;;;14.52;39.97
64616;BME280;51027;42.162;24.754;2023-02-04T07:58:29;99276.09;;;11.93;42.83
64616;BME280;51027;42.162;24.754;2023-02-04T08:00:55;99279.78;;;9.63;47.71
64616;BME280;51027;42.162;24.754;2023-02-04T08:03:20;99264.81;;;8.79;50.38
64616;BME280;51027;42.162;24.754;2023-02-04T08:05:45;99277.56;;;9.94;48.57
64616;BME280;51027;42.162;24.754;2023-02-04T08:08:11;99272.84;;;10.02;48.38
64616;BME280;51027;42.162;24.754;2023-02-04T08:10:36;99253.81;;;10.55;46.83
64616;BME280;51027;42.162;24.754;2023-02-04T08:13:02;99261.84;;;9.10;50.29
64616;BME280;51027;42.162;24.754;2023-02-04T08:15:27;99266.28;;;12.29;43.23
64616;BME280;51027;42.162;24.754;2023-02-04T08:17:53;99251.59;;;13.04;41.85
64616;BME280;51027;42.162;24.754;2023-02-04T08:20:18;99264.91;;;10.81;45.78
64616;BME280;51027;42.162;24.754;2023-02-04T08:22:44;99234.69;;;13.07;42.31
64616;BME280;51027;42.162;24.754;2023-02-04T08:25:10;99246.59;;;14.48;39.49
64616;BME280;51027;42.162;24.754;2023-02-04T08:27:36;99229.03;;;16.33;35.48
64616;BME280;51027;42.162;24.754;2023-02-04T08:30:03;99230.78;;;17.20;34.14
64616;BME280;51027;42.162;24.754;2023-02-04T08:32:28;99233.34;;;16.85;34.53
64616;BME280;51027;42.162;24.754;2023-02-04T08:34:56;99229.31;;;16.54;35.18
64616;BME280;51027;42.162;24.754;2023-02-04T08:37:21;99217.00;;;17.02;34.10
64616;BME280;51027;42.162;24.754;2023-02-04T08:39:47;99213.38;;;16.66;34.32
64616;BME280;51027;42.162;24.754;2023-02-04T08:42:13;99213.75;;;15.06;37.37
64616;BME280;51027;42.162;24.754;2023-02-04T08:44:40;99215.41;;;14.80;37.16
64616;BME280;51027;42.162;24.754;2023-02-04T08:47:05;99218.25;;;13.47;38.49
64616;BME280;51027;42.162;24.754;2023-02-04T08:49:31;99219.44;;;14.73;35.80
64616;BME280;51027;42.162;24.754;2023-02-04T08:51:57;99230.47;;;14.80;34.86
64616;BME280;51027;42.162;24.754;2023-02-04T08:54:22;99220.38;;;15.53;33.92
64616;BME280;51027;42.162;24.754;2023-02-04T08:56:49;99222.16;;;17.16;31.64
64616;BME280;51027;42.162;24.754;2023-02-04T08:59:15;99201.53;;;18.01;30.49
64616;BME280;51027;42.162;24.754;2023-02-04T09:01:40;99230.25;;;18.09;29.12
64616;BME280;51027;42.162;24.754;2023-02-04T09:04:06;99215.06;;;16.55;31.50
64616;BME280;51027;42.162;24.754;2023-02-04T09:06:31;99214.81;;;16.83;30.97
64616;BME280;51027;42.162;24.754;2023-02-04T09:08:57;99214.41;;;18.30;29.42
64616;BME280;51027;42.162;24.754;2023-02-04T09:11:22;99235.00;;;11.18;40.23
64616;BME280;51027;42.162;24.754;2023-02-04T09:13:48;99215.00;;;11.31;40.56
64616;BME280;51027;42.162;24.754;2023-02-04T09:16:13;99227.25;;;10.22;42.96
64616;BME280;51027;42.162;24.754;2023-02-04T09:18:39;99228.75;;;10.07;43.45
64616;BME280;51027;42.162;24.754;2023-02-04T09:21:04;99222.78;;;11.51;40.63
64616;BME280;51027;42.162;24.754;2023-02-04T09:23:30;99200.28;;;11.27;41.31
64616;BME280;51027;42.162;24.754;2023-02-04T09:25:55;99185.56;;;13.93;37.74
64616;BME280;51027;42.162;24.754;2023-02-04T09:28:21;99139.50;;;12.77;38.13
64616;BME280;51027;42.162;24.754;2023-02-04T09:30:46;99201.03;;;11.98;45.33
64616;BME280;51027;42.162;24.754;2023-02-04T09:33:13;99194.94;;;14.41;35.26
64616;BME280;51027;42.162;24.754;2023-02-04T09:35:39;99187.47;;;11.19;40.05
64616;BME280;51027;42.162;24.754;2023-02-04T09:38:04;99201.59;;;12.21;40.11
64616;BME280;51027;42.162;24.754;2023-02-04T09:40:33;99167.75;;;11.78;38.93
64616;BME280;51027;42.162;24.754;2023-02-04T09:43:00;99169.59;;;13.36;37.44
64616;BME280;51027;42.162;24.754;2023-02-04T09:45:32;99171.41;;;10.53;42.64
64616;BME280;51027;42.162;24.754;2023-02-04T09:48:01;99175.31;;;10.26;43.19
64616;BME280;51027;42.162;24.754;2023-02-04T09:50:28;99169.13;;;10.46;43.32
64616;BME280;51027;42.162;24.754;2023-02-04T09:52:59;99163.91;;;11.86;40.19
64616;BME280;51027;42.162;24.754;2023-02-04T09:55:27;99158.25;;;11.07;41.88
64616;BME280;51027;42.162;24.754;2023-02-04T09:57:53;99158.66;;;11.16;42.19
64616;BME280;51027;42.162;24.754;2023-02-04T10:00:24;99154.91;;;15.66;34.43
64616;BME280;51027;42.162;24.754;2023-02-04T10:02:49;99157.19;;;16.22;32.68
64616;BME280;51027;42.162;24.754;2023-02-04T10:05:30;99124.94;;;14.31;35.43
64616;BME280;51027;42.162;24.754;2023-02-04T10:07:56;99137.66;;;17.31;31.91
64616;BME280;51027;42.162;24.754;2023-02-04T10:10:23;99146.06;;;19.59;28.22
64616;BME280;51027;42.162;24.754;2023-02-04T10:12:52;99135.63;;;21.65;25.75
64616;BME280;51027;42.162;24.754;2023-02-04T10:15:19;99130.81;;;18.08;29.14
64616;BME280;51027;42.162;24.754;2023-02-04T10:17:47;99144.31;;;17.72;29.35
64616;BME280;51027;42.162;24.754;2023-02-04T10:20:24;99146.03;;;17.95;28.65
64616;BME280;51027;42.162;24.754;2023-02-04T10:22:51;99127.84;;;19.32;26.68
64616;BME280;51027;42.162;24.754;2023-02-04T10:25:20;99132.34;;;17.31;29.56
64616;BME280;51027;42.162;24.754;2023-02-04T10:27:48;99134.66;;;20.98;25.52
64616;BME280;51027;42.162;24.754;2023-02-04T10:30:22;99139.84;;;20.09;26.18
64616;BME280;51027;42.162;24.754;2023-02-04T10:32:48;99135.63;;;18.26;28.44
64616;BME280;51027;42.162;24.754;2023-02-04T10:35:16;99133.50;;;20.41;26.72
64616;BME280;51027;42.162;24.754;2023-02-04T10:37:42;99127.50;;;21.37;25.73
64616;BME280;51027;42.162;24.754;2023-02-04T10:40:27;99132.09;;;16.99;29.34
64616;BME280;51027;42.162;24.754;2023-02-04T10:42:53;99117.31;;;17.19;30.74
64616;BME280;51027;42.162;24.754;2023-02-04T10:45:28;99106.56;;;17.89;29.68
64616;BME280;51027;42.162;24.754;2023-02-04T10:47:55;99100.19;;;14.03;34.67
64616;BME280;51027;42.162;24.754;2023-02-04T10:50:26;99105.59;;;11.90;39.14
64616;BME280;51027;42.162;24.754;2023-02-04T10:52:54;99087.56;;;11.65;39.54
64616;BME280;51027;42.162;24.754;2023-02-04T10:55:40;99097.44;;;10.22;42.70
64616;BME280;51027;42.162;24.754;2023-02-04T10:58:09;99098.66;;;10.51;42.66
64616;BME280;51027;42.162;24.754;2023-02-04T11:00:36;99104.41;;;10.23;43.80
64616;BME280;51027;42.162;24.754;2023-02-04T11:03:14;99092.88;;;10.61;43.25
64616;BME280;51027;42.162;24.754;2023-02-04T11:05:43;99093.91;;;10.40;43.86
64616;BME280;51027;42.162;24.754;2023-02-04T11:08:22;99085.78;;;10.81;43.68
64616;BME280;51027;42.162;24.754;2023-02-04T11:11:02;99077.75;;;10.84;43.77
64616;BME280;51027;42.162;24.754;2023-02-04T11:19:03;99075.09;;;10.66;44.63
64616;BME280;51027;42.162;24.754;2023-02-04T11:21:49;99069.41;;;10.57;44.91
64616;BME280;51027;42.162;24.754;2023-02-04T11:26:43;99070.38;;;10.37;45.42
64616;BME280;51027;42.162;24.754;2023-02-04T11:29:23;99068.59;;;10.37;45.98
64616;BME280;51027;42.162;24.754;2023-02-04T11:42:02;99057.78;;;11.13;45.90
64616;BME280;51027;42.162;24.754;2023-02-04T11:44:28;99053.50;;;11.94;43.59
64616;BME280;51027;42.162;24.754;2023-02-04T11:46:54;99050.06;;;11.76;42.83
64616;BME280;51027;42.162;24.754;2023-02-04T11:49:21;99043.66;;;12.89;41.23
64616;BME280;51027;42.162;24.754;2023-02-04T11:51:48;99038.03;;;14.09;38.53
64616;BME280;51027;42.162;24.754;2023-02-04T11:54:15;99042.34;;;14.78;37.75
64616;BME280;51027;42.162;24.754;2023-02-04T11:56:44;99040.38;;;13.72;39.56
64616;BME280;51027;42.162;24.754;2023-02-04T11:59:11;99050.56;;;13.06;40.65
64616;BME280;51027;42.162;24.754;2023-02-04T12:01:38;99039.22;;;13.91;39.26
64616;BME280;51027;42.162;24.754;2023-02-04T12:04:07;99027.78;;;13.47;39.50
64616;BME280;51027;42.162;24.754;2023-02-04T12:06:44;99016.84;;;12.51;41.47
64616;BME280;51027;42.162;24.754;2023-02-04T12:09:26;99019.03;;;12.58;42.49
64616;BME280;51027;42.162;24.754;2023-02-04T12:12:02;99017.78;;;12.80;41.90
64616;BME280;51027;42.162;24.754;2023-02-04T12:14:33;99027.63;;;12.16;44.14
64616;BME280;51027;42.162;24.754;2023-02-04T12:16:59;99029.53;;;12.44;43.65
64616;BME280;51027;42.162;24.754;2023-02-04T12:19:26;99028.59;;;11.33;45.49
64616;BME280;51027;42.162;24.754;2023-02-04T12:21:53;99023.44;;;12.12;44.89
64616;BME280;51027;42.162;24.754;2023-02-04T12:24:19;99017.59;;;13.27;42.72
64616;BME280;51027;42.162;24.754;2023-02-04T12:26:45;99036.91;;;15.19;39.37
64616;BME280;51027;42.162;24.754;2023-02-04T12:29:10;99018.34;;;14.54;40.81
64616;BME280;51027;42.162;24.754;2023-02-04T12:31:36;99024.53;;;12.24;43.72
64616;BME280;51027;42.162;24.754;2023-02-04T12:34:02;99036.66;;;11.96;45.32
64616;BME280;51027;42.162;24.754;2023-02-04T12:36:28;99029.84;;;12.08;43.92
64616;BME280;51027;42.162;24.754;2023-02-04T12:38:55;99029.59;;;10.98;46.00
64616;BME280;51027;42.162;24.754;2023-02-04T12:41:22;99022.25;;;10.70;47.04
64616;BME280;51027;42.162;24.754;2023-02-04T12:43:48;99039.56;;;10.22;47.62
64616;BME280;51027;42.162;24.754;2023-02-04T12:46:15;99049.34;;;9.80;49.12
64616;BME280;51027;42.162;24.754;2023-02-04T12:48:43;99041.16;;;9.30;51.11
64616;BME280;51027;42.162;24.754;2023-02-04T12:51:08;99038.84;;;9.62;51.33
64616;BME280;51027;42.162;24.754;2023-02-04T12:53:34;99036.25;;;9.79;50.94
64616;BME280;51027;42.162;24.754;2023-02-04T12:56:02;99033.69;;;9.59;51.77
64616;BME280;51027;42.162;24.754;2023-02-04T12:58:28;99046.97;;;9.37;53.10
64616;BME280;51027;42.162;24.754;2023-02-04T13:00:53;99041.78;;;9.35;53.39
64616;BME280;51027;42.162;24.754;2023-02-04T13:03:18;99045.63;;;9.08;54.25
64616;BME280;51027;42.162;24.754;2023-02-04T13:05:44;99056.09;;;9.09;54.31
64616;BME280;51027;42.162;24.754;2023-02-04T13:08:09;99031.44;;;8.71;54.24
64616;BME280;51027;42.162;24.754;2023-02-04T13:10:35;99064.84;;;8.88;53.98
64616;BME280;51027;42.162;24.754;2023-02-04T13:13:00;99055.94;;;8.92;54.07